Time;durP1;ratioP1;P1;durP2;ratioP2;P2;SDS_P1;SDS_P2;PMS_P1;PMS_P2;Temp;Humidity;BMP_temperature;BMP_pressure;BME280_temperature;BME280_humidity;BME280_pressure;Samples;Min_cycle;Max_cycle;Signal;HPM_P1;HPM_P2
2022/11/15 00:01:25;;;;;;;;;;;2.40;99.90;;;;;;5036713;28;19914;-68
2022/11/15 00:03:51;;;;;;;;;;;2.40;99.90;;;;;;5036405;28;20365;-68
2022/11/15 00:06:17;;;;;;;;;;;2.40;99.90;;;;;;5036631;28;20032;-68
2022/11/15 00:08:42;;;;;;;;;;;2.30;99.90;;;;;;5036494;28;19944;-67
2022/11/15 00:11:09;;;;;;;;;;;2.30;99.90;;;;;;5036265;28;19909;-67
2022/11/15 00:13:35;;;;;;;;;;;2.20;99.90;;;;;;5036204;28;19959;-67
2022/11/15 00:16:01;;;;;;;;;;;2.20;99.90;;;;;;5036170;28;19913;-67
2022/11/15 00:18:27;;;;;;;;;;;2.20;99.90;;;;;;5035994;28;19924;-67
2022/11/15 00:20:53;;;;;;;;;;;2.20;99.90;;;;;;5036102;28;19991;-68
2022/11/15 00:23:18;;;;;;;;;;;2.20;99.90;;;;;;5036046;28;19959;-68
2022/11/15 00:25:44;;;;;;;;;;;2.20;99.90;;;;;;5018515;28;19913;-68
2022/11/15 00:28:10;;;;;;;;;;;2.20;99.90;;;;;;5036470;28;20008;-68
2022/11/15 00:30:35;;;;;;;;;;;2.20;99.90;;;;;;5035921;28;19917;-68
2022/11/15 00:33:04;;;;;;;;;;;2.20;99.90;;;;;;5035831;28;19913;-67
2022/11/15 00:35:34;;;;;;;;;;;2.20;99.90;;;;;;5035318;28;19910;-67
2022/11/15 00:38:00;;;;;;;;;;;2.20;99.90;;;;;;5035625;28;19945;-67
2022/11/15 00:40:25;;;;;;;;;;;2.10;99.90;;;;;;5036021;28;19909;-67
2022/11/15 00:42:51;;;;;;;;;;;2.10;99.90;;;;;;5035935;28;20303;-68
2022/11/15 00:45:16;;;;;;;;;;;2.10;99.90;;;;;;5035636;28;19917;-67
2022/11/15 00:47:46;;;;;;;;;;;2.00;99.90;;;;;;5035742;28;19909;-68
2022/11/15 00:50:11;;;;;;;;;;;2.00;99.90;;;;;;5035568;28;19909;-68
2022/11/15 00:52:37;;;;;;;;;;;2.00;99.90;;;;;;5035409;28;19971;-68
2022/11/15 00:55:03;;;;;;;;;;;2.00;99.90;;;;;;5035407;28;19913;-68
2022/11/15 00:57:28;;;;;;;;;;;2.00;99.90;;;;;;5035429;28;19924;-67
2022/11/15 00:59:54;;;;;;;;;;;2.00;99.90;;;;;;5035612;28;19921;-67
2022/11/15 01:02:19;;;;;;;;;;;2.00;99.90;;;;;;5017640;28;19913;-67
2022/11/15 01:04:45;;;;;;;;;;;2.00;99.90;;;;;;5035299;28;19913;-67
2022/11/15 01:07:10;;;;;;;;;;;1.90;99.90;;;;;;5018097;28;19913;-67
2022/11/15 01:09:36;;;;;;;;;;;1.80;99.90;;;;;;5035145;28;19936;-67
2022/11/15 01:12:02;;;;;;;;;;;1.80;99.90;;;;;;5035407;28;19962;-67
2022/11/15 01:14:27;;;;;;;;;;;1.80;99.90;;;;;;5035601;28;19917;-67
2022/11/15 01:16:53;;;;;;;;;;;1.80;99.90;;;;;;5035229;28;20056;-67
2022/11/15 01:19:18;;;;;;;;;;;1.80;99.90;;;;;;5034940;28;19914;-67
2022/11/15 01:21:44;;;;;;;;;;;1.80;99.90;;;;;;5035245;28;20377;-67
2022/11/15 01:24:13;;;;;;;;;;;1.80;99.90;;;;;;5017291;28;20320;-67
2022/11/15 01:26:38;;;;;;;;;;;1.80;99.90;;;;;;5034805;28;19960;-67
2022/11/15 01:29:04;;;;;;;;;;;1.80;99.90;;;;;;5017028;28;20311;-67
2022/11/15 01:31:29;;;;;;;;;;;1.80;99.90;;;;;;5034816;28;19968;-67
2022/11/15 01:33:55;;;;;;;;;;;1.80;99.90;;;;;;5035014;28;19967;-67
2022/11/15 01:36:21;;;;;;;;;;;1.70;99.90;;;;;;5034650;28;19928;-67
2022/11/15 01:38:52;;;;;;;;;;;1.70;99.90;;;;;;5016738;28;20007;-67
2022/11/15 01:41:23;;;;;;;;;;;1.70;99.90;;;;;;5034883;28;19909;-67
2022/11/15 01:43:52;;;;;;;;;;;1.60;99.90;;;;;;5034610;28;19932;-67
2022/11/15 01:46:34;;;;;;;;;;;1.60;99.90;;;;;;5034622;28;19920;-67
2022/11/15 01:49:20;;;;;;;;;;;1.60;99.90;;;;;;5035074;28;20369;-67
2022/11/15 01:51:46;;;;;;;;;;;1.60;99.90;;;;;;5033963;28;19960;-67
2022/11/15 01:54:13;;;;;;;;;;;1.50;99.90;;;;;;5034374;28;19949;-67
2022/11/15 01:57:05;;;;;;;;;;;1.50;99.90;;;;;;5034277;28;19952;-67
2022/11/15 01:59:31;;;;;;;;;;;1.50;99.90;;;;;;5031194;28;20350;-67
2022/11/15 02:01:56;;;;;;;;;;;1.40;99.90;;;;;;5016457;28;20353;-67
2022/11/15 02:04:31;;;;;;;;;;;1.40;99.90;;;;;;5034163;28;20297;-67
2022/11/15 02:06:56;;;;;;;;;;;1.40;99.90;;;;;;5034063;28;19913;-67
2022/11/15 02:09:22;;;;;;;;;;;1.40;99.90;;;;;;5034093;28;19921;-67
2022/11/15 02:11:49;;;;;;;;;;;1.40;99.90;;;;;;5034074;28;19916;-67
2022/11/15 02:14:16;;;;;;;;;;;1.40;99.90;;;;;;5034254;28;19913;-67
2022/11/15 02:17:00;;;;;;;;;;;1.40;99.90;;;;;;5034151;28;20415;-67
2022/11/15 02:19:32;;;;;;;;;;;1.40;99.90;;;;;;5033837;28;19913;-67
2022/11/15 02:22:16;;;;;;;;;;;1.40;99.90;;;;;;5033925;28;19910;-67
2022/11/15 02:24:41;;;;;;;;;;;1.30;99.90;;;;;;5016165;28;19910;-67
2022/11/15 02:27:25;;;;;;;;;;;1.30;99.90;;;;;;5034334;28;19955;-67
2022/11/15 02:30:09;;;;;;;;;;;1.30;99.90;;;;;;5034300;28;19948;-67
2022/11/15 02:32:44;;;;;;;;;;;1.20;99.90;;;;;;5033998;28;19913;-67
2022/11/15 02:35:16;;;;;;;;;;;1.10;99.90;;;;;;5033682;28;19963;-67
2022/11/15 02:37:44;;;;;;;;;;;1.10;99.90;;;;;;5033559;28;19913;-67
2022/11/15 02:40:12;;;;;;;;;;;1.10;99.90;;;;;;5033599;28;19909;-67
2022/11/15 02:45:44;;;;;;;;;;;1.00;99.90;;;;;;5034158;28;19917;-67
2022/11/15 02:48:10;;;;;;;;;;;0.90;99.90;;;;;;5033492;28;20280;-67
2022/11/15 02:50:36;;;;;;;;;;;0.90;99.90;;;;;;5034213;28;19913;-67
2022/11/15 02:53:02;;;;;;;;;;;0.90;99.90;;;;;;5033503;28;19921;-68
2022/11/15 02:55:32;;;;;;;;;;;0.90;99.90;;;;;;5033746;28;19913;-68
2022/11/15 02:58:20;;;;;;;;;;;0.90;99.90;;;;;;5035052;28;20284;-68
2022/11/15 03:01:00;;;;;;;;;;;0.90;99.90;;;;;;5019907;28;20266;-68
2022/11/15 03:03:30;;;;;;;;;;;0.90;99.90;;;;;;5037843;28;20000;-68
2022/11/15 03:06:07;;;;;;;;;;;0.90;99.90;;;;;;5019804;28;19909;-68
2022/11/15 03:09:05;;;;;;;;;;;0.90;99.90;;;;;;5037474;28;19916;-68
2022/11/15 03:11:37;;;;;;;;;;;0.90;99.90;;;;;;4998154;28;20312;-68
2022/11/15 03:14:12;;;;;;;;;;;0.80;99.90;;;;;;5037637;28;19931;-68
2022/11/15 03:16:40;;;;;;;;;;;0.80;99.90;;;;;;5037527;28;19983;-67
2022/11/15 03:19:11;;;;;;;;;;;0.80;99.90;;;;;;5037495;28;20273;-68
2022/11/15 03:21:38;;;;;;;;;;;0.80;99.90;;;;;;5037526;28;19910;-68
2022/11/15 03:24:06;;;;;;;;;;;0.80;99.90;;;;;;5037174;28;19913;-68
2022/11/15 03:26:33;;;;;;;;;;;0.90;99.90;;;;;;5037576;28;20302;-68
2022/11/15 03:29:00;;;;;;;;;;;0.80;99.90;;;;;;5037331;28;19913;-68
2022/11/15 03:31:46;;;;;;;;;;;0.80;99.90;;;;;;5037035;28;19912;-68
2022/11/15 03:34:16;;;;;;;;;;;0.70;99.90;;;;;;5037338;28;19909;-68
2022/11/15 03:36:43;;;;;;;;;;;0.70;99.90;;;;;;5037107;28;20301;-68
2022/11/15 03:39:08;;;;;;;;;;;0.70;99.90;;;;;;5019435;28;20353;-68
2022/11/15 03:41:37;;;;;;;;;;;0.70;99.90;;;;;;5036831;28;19929;-68
2022/11/15 03:44:02;;;;;;;;;;;0.70;99.90;;;;;;5036759;28;20007;-68
2022/11/15 03:46:32;;;;;;;;;;;0.70;99.90;;;;;;5036648;28;20014;-68
2022/11/15 03:49:03;;;;;;;;;;;0.70;99.90;;;;;;5036652;28;19913;-68
2022/11/15 03:51:29;;;;;;;;;;;0.70;99.90;;;;;;5036610;28;19915;-68
2022/11/15 03:53:55;;;;;;;;;;;0.70;99.90;;;;;;5036531;28;20288;-68
2022/11/15 03:56:20;;;;;;;;;;;0.70;99.90;;;;;;5036838;28;19971;-68
2022/11/15 03:58:46;;;;;;;;;;;0.70;99.90;;;;;;5036881;28;19917;-68
2022/11/15 04:01:11;;;;;;;;;;;0.70;99.90;;;;;;5036638;28;20000;-68
2022/11/15 04:03:37;;;;;;;;;;;0.70;99.90;;;;;;5019225;28;19957;-68
2022/11/15 04:06:03;;;;;;;;;;;0.60;99.90;;;;;;5036316;28;19921;-68
2022/11/15 04:08:28;;;;;;;;;;;0.60;99.90;;;;;;5036430;28;19936;-68
2022/11/15 04:10:54;;;;;;;;;;;0.60;99.90;;;;;;5036258;28;19956;-68
2022/11/15 04:13:19;;;;;;;;;;;0.50;99.90;;;;;;5036550;28;19913;-68
2022/11/15 04:15:45;;;;;;;;;;;0.50;99.90;;;;;;5036708;28;19913;-68
2022/11/15 04:18:10;;;;;;;;;;;0.50;99.90;;;;;;5036011;28;19923;-68
2022/11/15 04:26:16;;;;;;;;;;;0.50;99.90;;;;;;5036797;28;20325;-68
2022/11/15 04:31:26;;;;;;;;;;;0.40;99.90;;;;;;5034809;28;19916;-67
2022/11/15 04:33:52;;;;;;;;;;;0.40;99.90;;;;;;5017861;28;19909;-68
2022/11/15 04:39:02;;;;;;;;;;;0.40;99.90;;;;;;5034890;28;19995;-68
2022/11/15 04:41:28;;;;;;;;;;;0.30;99.90;;;;;;5017833;28;19925;-68
2022/11/15 04:43:54;;;;;;;;;;;0.30;99.90;;;;;;5017542;28;19913;-68
2022/11/15 04:46:20;;;;;;;;;;;0.30;99.90;;;;;;5017027;28;19914;-68
2022/11/15 04:48:45;;;;;;;;;;;0.30;99.90;;;;;;5035294;28;20388;-67
2022/11/15 04:51:11;;;;;;;;;;;0.30;99.90;;;;;;5017588;28;20262;-68
2022/11/15 04:53:37;;;;;;;;;;;0.30;99.90;;;;;;5034256;28;19927;-68
2022/11/15 04:56:02;;;;;;;;;;;0.20;99.90;;;;;;5035261;28;20003;-67
2022/11/15 04:58:28;;;;;;;;;;;0.20;99.90;;;;;;5035005;28;19921;-67
2022/11/15 05:00:53;;;;;;;;;;;0.30;99.90;;;;;;5035202;28;20028;-67
2022/11/15 05:06:03;;;;;;;;;;;0.30;99.90;;;;;;5035408;28;20316;-67
2022/11/15 05:08:28;;;;;;;;;;;0.20;99.90;;;;;;5035190;28;19914;-66
2022/11/15 05:10:54;;;;;;;;;;;0.20;99.90;;;;;;5017351;28;19917;-66
2022/11/15 05:13:19;;;;;;;;;;;0.10;99.90;;;;;;5034937;28;19913;-66
2022/11/15 05:15:45;;;;;;;;;;;0.10;99.90;;;;;;5035009;28;19996;-66
2022/11/15 05:18:11;;;;;;;;;;;0.10;99.90;;;;;;5032992;28;19917;-68
2022/11/15 05:20:36;;;;;;;;;;;0.10;99.90;;;;;;5032428;28;19913;-67
2022/11/15 05:23:02;;;;;;;;;;;0.10;99.90;;;;;;5033786;28;20435;-67
2022/11/15 05:25:28;;;;;;;;;;;0.10;99.90;;;;;;5033843;28;19913;-66
2022/11/15 05:27:53;;;;;;;;;;;0.10;99.90;;;;;;5034483;28;19918;-66
2022/11/15 05:30:19;;;;;;;;;;;0.10;99.90;;;;;;5034930;28;20008;-66
2022/11/15 05:32:45;;;;;;;;;;;0.20;99.90;;;;;;5034686;28;20373;-66
2022/11/15 05:35:13;;;;;;;;;;;0.20;99.90;;;;;;5034891;28;19920;-66
2022/11/15 05:37:40;;;;;;;;;;;0.20;99.90;;;;;;5034433;28;19917;-66
2022/11/15 05:40:05;;;;;;;;;;;0.20;99.90;;;;;;5035070;28;19917;-66
2022/11/15 05:42:31;;;;;;;;;;;0.20;99.90;;;;;;5034441;28;20431;-66
2022/11/15 05:44:57;;;;;;;;;;;0.20;99.90;;;;;;5034434;28;19975;-66
2022/11/15 05:47:24;;;;;;;;;;;0.20;99.90;;;;;;5034743;28;19988;-66
2022/11/15 05:49:51;;;;;;;;;;;0.20;99.90;;;;;;5034603;28;20007;-66
2022/11/15 05:52:20;;;;;;;;;;;0.10;99.90;;;;;;5034181;28;19972;-66
2022/11/15 05:54:45;;;;;;;;;;;0.10;99.90;;;;;;5034564;28;19944;-66
2022/11/15 05:57:11;;;;;;;;;;;0.10;99.90;;;;;;5034378;28;19913;-66
2022/11/15 05:59:37;;;;;;;;;;;0.10;99.90;;;;;;5034122;28;19921;-66
2022/11/15 06:02:02;;;;;;;;;;;0.10;99.90;;;;;;5034136;28;19923;-66
2022/11/15 06:04:28;;;;;;;;;;;0.00;99.90;;;;;;5034063;28;20324;-66
2022/11/15 06:06:53;;;;;;;;;;;0.00;99.90;;;;;;5034929;28;19928;-66
2022/11/15 06:09:19;;;;;;;;;;;0.00;99.90;;;;;;5033939;28;19940;-66
2022/11/15 06:11:45;;;;;;;;;;;-0.10;99.90;;;;;;5034035;28;19959;-65
2022/11/15 06:14:10;;;;;;;;;;;-0.10;99.90;;;;;;5033986;28;19913;-65
2022/11/15 06:16:36;;;;;;;;;;;-0.20;99.90;;;;;;5033835;28;20288;-66
2022/11/15 06:19:01;;;;;;;;;;;-0.20;99.90;;;;;;5016040;28;19917;-65
2022/11/15 06:21:29;;;;;;;;;;;-0.10;99.90;;;;;;5033791;28;19999;-66
2022/11/15 06:23:55;;;;;;;;;;;-0.20;99.90;;;;;;5034343;28;19921;-66
2022/11/15 06:26:20;;;;;;;;;;;-0.10;99.90;;;;;;5034039;28;19975;-66
2022/11/15 06:28:46;;;;;;;;;;;-0.10;99.90;;;;;;5033596;28;20361;-65
2022/11/15 06:31:12;;;;;;;;;;;-0.10;99.90;;;;;;5033555;28;20336;-65
2022/11/15 06:33:40;;;;;;;;;;;-0.10;99.90;;;;;;5032951;28;20258;-65
2022/11/15 06:36:07;;;;;;;;;;;-0.10;99.90;;;;;;5033582;28;19980;-66
2022/11/15 06:38:33;;;;;;;;;;;-0.10;99.90;;;;;;5033424;28;19914;-66
2022/11/15 06:41:05;;;;;;;;;;;-0.10;99.90;;;;;;5033527;28;19961;-66
2022/11/15 06:43:31;;;;;;;;;;;-0.10;99.90;;;;;;5033480;28;20389;-66
2022/11/15 06:46:00;;;;;;;;;;;-0.10;99.90;;;;;;5033464;28;19913;-65
2022/11/15 06:48:26;;;;;;;;;;;-0.20;99.90;;;;;;5033431;28;19910;-65
2022/11/15 06:50:52;;;;;;;;;;;-0.20;99.90;;;;;;5033514;28;19920;-65
2022/11/15 06:53:18;;;;;;;;;;;-0.20;99.90;;;;;;5033359;28;19940;-65
2022/11/15 06:55:43;;;;;;;;;;;-0.30;99.90;;;;;;5033975;28;20353;-65
2022/11/15 06:58:09;;;;;;;;;;;-0.30;99.90;;;;;;5033253;28;20337;-65
2022/11/15 07:00:35;;;;;;;;;;;-0.20;99.90;;;;;;5033902;28;20419;-65
2022/11/15 07:03:00;;;;;;;;;;;-0.20;99.90;;;;;;5033867;28;19920;-65
2022/11/15 07:05:26;;;;;;;;;;;-0.20;99.90;;;;;;5033597;28;20008;-65
2022/11/15 07:07:55;;;;;;;;;;;-0.20;99.90;;;;;;5033259;28;19913;-65
2022/11/15 07:10:21;;;;;;;;;;;-0.20;99.90;;;;;;5033249;28;20392;-65
2022/11/15 07:12:48;;;;;;;;;;;-0.20;99.90;;;;;;5015592;28;19910;-65
2022/11/15 07:15:13;;;;;;;;;;;-0.10;99.90;;;;;;5033210;28;19948;-64
2022/11/15 07:17:39;;;;;;;;;;;-0.10;99.90;;;;;;5033561;28;19920;-65
2022/11/15 07:20:04;;;;;;;;;;;-0.10;99.90;;;;;;5015584;28;20479;-65
2022/11/15 07:22:30;;;;;;;;;;;-0.10;99.90;;;;;;5033149;28;20289;-65
2022/11/15 07:24:55;;;;;;;;;;;0.00;99.90;;;;;;5033168;28;19917;-65
2022/11/15 07:27:21;;;;;;;;;;;0.00;99.90;;;;;;5033041;28;20004;-65
2022/11/15 07:29:47;;;;;;;;;;;0.00;99.90;;;;;;5033120;28;19998;-64
2022/11/15 07:32:12;;;;;;;;;;;0.00;99.90;;;;;;5033129;28;19913;-65
2022/11/15 07:34:38;;;;;;;;;;;-0.10;99.90;;;;;;5033019;28;19920;-65
2022/11/15 07:37:03;;;;;;;;;;;-0.10;99.90;;;;;;5032985;28;19914;-65
2022/11/15 07:39:29;;;;;;;;;;;0.00;99.90;;;;;;5033258;28;20370;-65
2022/11/15 07:42:52;;;;;;;;;;;0.00;99.90;;;;;;5033017;28;19923;-65
2022/11/15 07:44:40;;;;;;;;;;;0.10;99.90;;;;;;5035450;28;19924;-65
2022/11/15 07:47:05;;;;;;;;;;;0.20;99.90;;;;;;5018857;28;20312;-65
2022/11/15 07:49:31;;;;;;;;;;;0.20;99.90;;;;;;5018933;28;19963;-65
2022/11/15 07:51:56;;;;;;;;;;;0.30;99.90;;;;;;5036781;28;20012;-66
2022/11/15 07:54:22;;;;;;;;;;;0.30;99.90;;;;;;5037115;28;20365;-65
2022/11/15 07:56:48;;;;;;;;;;;0.40;99.90;;;;;;5036720;28;19913;-66
2022/11/15 07:59:13;;;;;;;;;;;0.50;99.90;;;;;;5036387;28;19913;-65
2022/11/15 08:01:39;;;;;;;;;;;0.60;99.90;;;;;;5036644;28;19920;-65
2022/11/15 08:04:04;;;;;;;;;;;0.70;99.90;;;;;;5036383;28;19917;-66
2022/11/15 08:06:30;;;;;;;;;;;0.80;99.90;;;;;;5036584;28;19909;-66
2022/11/15 08:08:55;;;;;;;;;;;0.90;99.90;;;;;;5036293;28;19913;-66
2022/11/15 08:11:21;;;;;;;;;;;1.00;99.90;;;;;;5018579;28;19999;-66
2022/11/15 08:13:46;;;;;;;;;;;1.10;99.90;;;;;;5018519;28;20372;-66
2022/11/15 08:16:12;;;;;;;;;;;1.10;99.90;;;;;;5036227;28;20370;-66
2022/11/15 08:18:38;;;;;;;;;;;1.20;99.90;;;;;;5035955;28;20381;-66
2022/11/15 08:21:03;;;;;;;;;;;1.20;99.90;;;;;;5018333;28;20285;-66
2022/11/15 08:23:29;;;;;;;;;;;1.20;99.90;;;;;;5036304;28;19940;-66
2022/11/15 08:26:02;;;;;;;;;;;1.30;99.90;;;;;;5036528;28;19913;-66
2022/11/15 08:28:27;;;;;;;;;;;1.30;99.90;;;;;;5036154;28;20315;-66
2022/11/15 08:30:53;;;;;;;;;;;1.40;99.90;;;;;;5018489;28;19913;-66
2022/11/15 08:33:18;;;;;;;;;;;1.40;99.90;;;;;;5036111;28;20396;-66
2022/11/15 08:35:44;;;;;;;;;;;1.50;99.90;;;;;;5036329;28;19921;-66
2022/11/15 08:38:10;;;;;;;;;;;1.60;99.90;;;;;;5035696;28;19917;-66
2022/11/15 08:40:36;;;;;;;;;;;1.70;99.90;;;;;;5035741;28;19917;-66
2022/11/15 08:43:02;;;;;;;;;;;1.80;99.90;;;;;;5018639;28;19913;-66
2022/11/15 08:45:28;;;;;;;;;;;1.90;99.90;;;;;;5035686;28;19913;-66
2022/11/15 08:47:54;;;;;;;;;;;1.90;99.90;;;;;;5035624;28;19910;-66
2022/11/15 08:50:20;;;;;;;;;;;2.10;99.90;;;;;;5035637;28;19920;-66
2022/11/15 08:52:45;;;;;;;;;;;2.10;99.90;;;;;;5035358;28;19928;-66
2022/11/15 08:55:11;;;;;;;;;;;2.20;99.90;;;;;;5034880;28;19963;-66
2022/11/15 08:57:36;;;;;;;;;;;2.30;99.90;;;;;;5035556;28;19913;-66
2022/11/15 09:00:03;;;;;;;;;;;2.40;99.90;;;;;;5035683;28;19913;-66
2022/11/15 09:02:29;;;;;;;;;;;2.50;99.90;;;;;;5035546;28;19963;-66
2022/11/15 09:04:54;;;;;;;;;;;2.60;99.90;;;;;;5035210;28;19921;-66
2022/11/15 09:07:20;;;;;;;;;;;2.70;99.90;;;;;;5035164;28;20373;-66
2022/11/15 09:09:46;;;;;;;;;;;2.80;99.90;;;;;;5035399;28;19920;-66
2022/11/15 09:12:11;;;;;;;;;;;3.00;99.90;;;;;;5035727;28;19920;-66
2022/11/15 09:14:37;;;;;;;;;;;3.10;99.90;;;;;;5017342;28;20285;-66
2022/11/15 09:17:03;;;;;;;;;;;3.20;99.90;;;;;;5034958;28;20396;-66
2022/11/15 09:19:28;;;;;;;;;;;3.20;99.90;;;;;;5034946;28;20388;-66
2022/11/15 09:21:54;;;;;;;;;;;3.30;99.90;;;;;;5034960;28;20392;-67
2022/11/15 09:24:20;;;;;;;;;;;3.40;99.90;;;;;;5017076;28;19916;-66
2022/11/15 09:26:46;;;;;;;;;;;3.50;99.90;;;;;;5034727;28;19916;-67
2022/11/15 09:29:11;;;;;;;;;;;3.60;99.90;;;;;;5034834;28;19913;-66
2022/11/15 09:31:37;;;;;;;;;;;3.70;99.90;;;;;;5034996;28;19968;-66
2022/11/15 09:34:02;;;;;;;;;;;3.80;99.90;;;;;;5034684;28;19967;-66
2022/11/15 09:36:28;;;;;;;;;;;3.90;99.90;;;;;;5034806;28;19913;-67
2022/11/15 09:38:54;;;;;;;;;;;4.00;99.90;;;;;;5034530;28;19932;-67
2022/11/15 09:41:40;;;;;;;;;;;4.20;99.90;;;;;;5034852;28;19941;-67
2022/11/15 09:44:05;;;;;;;;;;;4.30;99.90;;;;;;5012840;28;20329;-67
2022/11/15 09:46:34;;;;;;;;;;;4.40;99.90;;;;;;5034370;28;19909;-67
2022/11/15 09:49:01;;;;;;;;;;;4.60;99.90;;;;;;5016671;28;19909;-67
2022/11/15 09:51:36;;;;;;;;;;;4.70;99.90;;;;;;5034410;28;19959;-67
2022/11/15 09:54:05;;;;;;;;;;;4.80;99.90;;;;;;5034264;28;20377;-67
2022/11/15 09:56:32;;;;;;;;;;;4.90;99.90;;;;;;5034223;28;19916;-67
2022/11/15 09:59:06;;;;;;;;;;;5.10;99.90;;;;;;5034165;28;20380;-67
2022/11/15 10:01:37;;;;;;;;;;;5.20;99.90;;;;;;5034192;28;20064;-67
2022/11/15 10:04:03;;;;;;;;;;;5.30;99.90;;;;;;5034151;28;19909;-68
2022/11/15 10:06:29;;;;;;;;;;;5.40;99.90;;;;;;5016194;28;19913;-67
2022/11/15 10:09:01;;;;;;;;;;;5.50;99.90;;;;;;5034285;28;20373;-68
2022/11/15 10:11:35;;;;;;;;;;;5.60;99.90;;;;;;5034293;28;20289;-68
2022/11/15 10:14:01;;;;;;;;;;;5.70;99.90;;;;;;5033964;28;20262;-67
2022/11/15 10:17:05;;;;;;;;;;;5.80;99.90;;;;;;5033868;28;19915;-68
2022/11/15 10:19:38;;;;;;;;;;;5.90;99.90;;;;;;4973565;28;19920;-68
2022/11/15 10:22:16;;;;;;;;;;;6.10;99.90;;;;;;4973315;28;19910;-68
2022/11/15 10:24:43;;;;;;;;;;;6.10;99.90;;;;;;5009149;28;19909;-68
2022/11/15 10:27:16;;;;;;;;;;;6.30;99.90;;;;;;5033695;28;19916;-68
2022/11/15 10:29:45;;;;;;;;;;;6.40;99.90;;;;;;5033975;28;19992;-69
2022/11/15 10:32:12;;;;;;;;;;;6.50;99.90;;;;;;5016009;28;20395;-68
2022/11/15 10:34:37;;;;;;;;;;;6.60;99.90;;;;;;5033566;28;20309;-68
2022/11/15 10:37:03;;;;;;;;;;;6.70;99.90;;;;;;5033847;28;19921;-69
2022/11/15 10:39:29;;;;;;;;;;;6.70;99.90;;;;;;5033753;28;19957;-69
2022/11/15 10:41:54;;;;;;;;;;;6.90;99.90;;;;;;5034394;28;19963;-69
2022/11/15 10:44:22;;;;;;;;;;;7.00;99.90;;;;;;5033522;28;19920;-69
2022/11/15 10:46:48;;;;;;;;;;;7.10;99.90;;;;;;5033372;28;19909;-69
2022/11/15 10:49:14;;;;;;;;;;;7.30;99.90;;;;;;5015787;28;19909;-69
2022/11/15 10:51:41;;;;;;;;;;;7.40;99.90;;;;;;5034079;28;19929;-69
2022/11/15 10:54:10;;;;;;;;;;;7.50;99.90;;;;;;5033360;28;19917;-69
2022/11/15 10:56:36;;;;;;;;;;;7.60;99.90;;;;;;5033623;28;19997;-69
2022/11/15 10:59:01;;;;;;;;;;;7.70;99.90;;;;;;5033564;28;20384;-68
2022/11/15 11:01:29;;;;;;;;;;;7.80;99.90;;;;;;5033625;28;19913;-69
2022/11/15 11:03:59;;;;;;;;;;;7.90;99.90;;;;;;5033574;28;19974;-69
2022/11/15 11:06:25;;;;;;;;;;;8.10;99.90;;;;;;5033261;28;19981;-69
2022/11/15 11:08:58;;;;;;;;;;;8.20;99.90;;;;;;5034323;28;19921;-69
2022/11/15 11:11:24;;;;;;;;;;;8.30;99.90;;;;;;5033216;28;19916;-68
2022/11/15 11:13:50;;;;;;;;;;;8.40;99.90;;;;;;5033440;28;19913;-68
2022/11/15 11:16:15;;;;;;;;;;;8.50;99.90;;;;;;5033168;28;19941;-69
2022/11/15 11:18:44;;;;;;;;;;;8.60;99.90;;;;;;5016540;28;19920;-69
2022/11/15 11:21:12;;;;;;;;;;;8.60;99.90;;;;;;5037084;28;19909;-69
2022/11/15 11:23:50;;;;;;;;;;;8.70;99.90;;;;;;5037103;28;19915;-69
2022/11/15 11:26:34;;;;;;;;;;;8.80;99.90;;;;;;5037091;28;20323;-69
2022/11/15 11:29:06;;;;;;;;;;;8.80;99.90;;;;;;5037056;28;19960;-68
2022/11/15 11:31:37;;;;;;;;;;;8.90;99.90;;;;;;5037033;28;19992;-68
2022/11/15 11:34:09;;;;;;;;;;;9.00;99.90;;;;;;5036985;28;20007;-69
2022/11/15 11:36:34;;;;;;;;;;;9.10;99.90;;;;;;5037410;28;20147;-69
2022/11/15 11:39:16;;;;;;;;;;;9.20;99.90;;;;;;5037637;28;19949;-69
2022/11/15 11:41:45;;;;;;;;;;;9.30;99.90;;;;;;5036871;28;19996;-69
2022/11/15 11:44:29;;;;;;;;;;;9.30;99.90;;;;;;5036837;28;19909;-69
2022/11/15 11:47:08;;;;;;;;;;;9.40;99.90;;;;;;5036930;28;19971;-69
2022/11/15 11:49:49;;;;;;;;;;;9.50;99.90;;;;;;5036962;28;19909;-69
2022/11/15 11:52:15;;;;;;;;;;;9.60;99.90;;;;;;5036468;28;19913;-69
2022/11/15 11:55:16;;;;;;;;;;;9.60;99.90;;;;;;5018868;28;19959;-69
2022/11/15 11:57:46;;;;;;;;;;;9.70;99.90;;;;;;4975645;28;19917;-69
2022/11/15 12:00:11;;;;;;;;;;;9.80;99.90;;;;;;5025563;28;19956;-69
2022/11/15 12:02:39;;;;;;;;;;;9.80;99.90;;;;;;5018687;28;19956;-69
2022/11/15 12:05:10;;;;;;;;;;;9.90;99.90;;;;;;5036304;28;19909;-69
2022/11/15 12:07:37;;;;;;;;;;;10.00;99.90;;;;;;5036254;28;19955;-69
2022/11/15 12:10:03;;;;;;;;;;;10.10;99.90;;;;;;5036328;28;19913;-69
2022/11/15 12:12:36;;;;;;;;;;;10.20;99.90;;;;;;5036969;28;19909;-69
2022/11/15 12:15:20;;;;;;;;;;;10.30;99.90;;;;;;5036349;28;19916;-69
2022/11/15 12:17:46;;;;;;;;;;;10.40;99.90;;;;;;5036336;28;19909;-69
2022/11/15 12:20:19;;;;;;;;;;;10.40;99.90;;;;;;5036081;28;19989;-69
2022/11/15 12:22:48;;;;;;;;;;;10.50;99.90;;;;;;5036060;28;20407;-69
2022/11/15 12:25:22;;;;;;;;;;;10.60;99.90;;;;;;5035990;28;19909;-69
2022/11/15 12:27:57;;;;;;;;;;;10.60;99.90;;;;;;5036119;28;19928;-69
2022/11/15 12:30:23;;;;;;;;;;;10.60;99.90;;;;;;5035034;28;20396;-69
2022/11/15 12:32:52;;;;;;;;;;;10.70;99.90;;;;;;5035885;28;19948;-69
2022/11/15 12:35:32;;;;;;;;;;;10.80;99.90;;;;;;5036131;28;19913;-69
2022/11/15 12:37:58;;;;;;;;;;;10.90;99.90;;;;;;5035723;28;19909;-70
2022/11/15 12:40:31;;;;;;;;;;;11.00;99.90;;;;;;5035772;28;20270;-70
2022/11/15 12:43:22;;;;;;;;;;;11.10;99.90;;;;;;5035653;28;20276;-70
2022/11/15 12:45:48;;;;;;;;;;;11.30;99.90;;;;;;5035013;28;20361;-69
2022/11/15 12:48:16;;;;;;;;;;;11.40;99.90;;;;;;5035775;28;19921;-69
2022/11/15 12:50:54;;;;;;;;;;;11.50;99.90;;;;;;5017794;28;19992;-70
2022/11/15 12:53:23;;;;;;;;;;;11.60;99.90;;;;;;5017616;28;19917;-70
2022/11/15 12:56:00;;;;;;;;;;;11.70;99.90;;;;;;5017710;28;19910;-70
2022/11/15 12:58:28;;;;;;;;;;;11.70;99.90;;;;;;5035305;28;19983;-69
2022/11/15 13:00:53;;;;;;;;;;;11.80;99.90;;;;;;5017684;28;20366;-70
2022/11/15 13:03:21;;;;;;;;;;;11.90;99.10;;;;;;5035345;28;19920;-70
2022/11/15 13:05:54;;;;;;;;;;;12.00;99.10;;;;;;5035211;28;19916;-70
2022/11/15 13:08:35;;;;;;;;;;;12.10;98.00;;;;;;5035483;28;19909;-70
2022/11/15 13:11:21;;;;;;;;;;;12.10;98.10;;;;;;5035148;28;19913;-69
2022/11/15 13:13:46;;;;;;;;;;;12.10;99.00;;;;;;5034991;28;19909;-70
2022/11/15 13:16:17;;;;;;;;;;;12.20;99.20;;;;;;5035619;28;20008;-70
2022/11/15 13:18:43;;;;;;;;;;;12.30;99.40;;;;;;5034892;28;20284;-70
2022/11/15 13:24:04;;;;;;;;;;;12.40;99.80;;;;;;5035314;28;19917;-70
2022/11/15 13:26:30;;;;;;;;;;;12.40;99.40;;;;;;5034383;28;19913;-69
2022/11/15 13:28:56;;;;;;;;;;;12.40;98.60;;;;;;5034512;28;19917;-70
2022/11/15 13:31:30;;;;;;;;;;;12.40;98.50;;;;;;5034742;28;20284;-70
2022/11/15 13:34:14;;;;;;;;;;;12.40;98.70;;;;;;5035284;28;19913;-70
2022/11/15 13:36:40;;;;;;;;;;;12.40;97.20;;;;;;5033783;28;19920;-70
2022/11/15 13:39:22;;;;;;;;;;;12.40;96.80;;;;;;5034120;28;20016;-70
2022/11/15 13:41:49;;;;;;;;;;;12.40;96.70;;;;;;5016851;28;19913;-70
2022/11/15 13:44:20;;;;;;;;;;;12.40;97.10;;;;;;5017155;28;19913;-69
2022/11/15 13:46:45;;;;;;;;;;;12.30;95.90;;;;;;5010849;28;19917;-68
2022/11/15 13:49:11;;;;;;;;;;;12.30;95.70;;;;;;5034591;28;19923;-69
2022/11/15 13:51:39;;;;;;;;;;;12.30;95.10;;;;;;5034275;28;20007;-69
2022/11/15 13:54:20;;;;;;;;;;;12.20;95.70;;;;;;5034012;28;19921;-70
2022/11/15 13:56:52;;;;;;;;;;;12.20;95.70;;;;;;5034105;28;19913;-71
2022/11/15 13:59:24;;;;;;;;;;;12.20;95.80;;;;;;5034523;28;19942;-70
2022/11/15 14:01:50;;;;;;;;;;;12.20;95.00;;;;;;5034632;28;19913;-70
2022/11/15 14:04:18;;;;;;;;;;;12.10;95.50;;;;;;5034194;28;19909;-70
2022/11/15 14:06:45;;;;;;;;;;;12.00;95.00;;;;;;5034118;28;19954;-70
2022/11/15 14:09:11;;;;;;;;;;;12.00;95.00;;;;;;5034296;28;19909;-70
2022/11/15 14:11:37;;;;;;;;;;;12.00;94.50;;;;;;5034104;28;19916;-71
2022/11/15 14:14:09;;;;;;;;;;;11.90;95.00;;;;;;5033468;28;20051;-71
2022/11/15 14:16:54;;;;;;;;;;;11.80;95.30;;;;;;5022297;28;19917;-73
2022/11/15 14:19:20;;;;;;;;;;;11.80;95.80;;;;;;5017493;28;19920;-72
2022/11/15 14:22:06;;;;;;;;;;;11.70;95.60;;;;;;5033192;28;20469;-72
2022/11/15 14:24:31;;;;;;;;;;;11.70;94.50;;;;;;5033451;28;19921;-72
2022/11/15 14:27:15;;;;;;;;;;;11.60;95.10;;;;;;5033640;28;19917;-72
2022/11/15 14:29:40;;;;;;;;;;;11.60;95.60;;;;;;5024727;28;19937;-72
2022/11/15 14:32:16;;;;;;;;;;;11.50;96.20;;;;;;5034378;28;20365;-72
2022/11/15 14:34:42;;;;;;;;;;;11.40;96.40;;;;;;5034708;28;20281;-72
2022/11/15 14:37:19;;;;;;;;;;;11.40;96.70;;;;;;5033656;28;19917;-72
2022/11/15 14:39:45;;;;;;;;;;;11.30;97.10;;;;;;5033871;28;19967;-71
2022/11/15 14:42:10;;;;;;;;;;;11.10;97.50;;;;;;5033600;28;19913;-72
2022/11/15 14:44:36;;;;;;;;;;;11.10;99.00;;;;;;5034161;28;19914;-73
2022/11/15 14:47:02;;;;;;;;;;;10.90;99.50;;;;;;5033293;28;19913;-71
2022/11/15 14:49:27;;;;;;;;;;;10.70;99.80;;;;;;5015814;28;19913;-71
2022/11/15 14:51:53;;;;;;;;;;;10.60;99.90;;;;;;5033227;28;19917;-72
2022/11/15 14:54:18;;;;;;;;;;;10.50;99.90;;;;;;5032963;28;19917;-71